createdAt,value
2022-10-17T03:52:01.307Z,333.73
2022-10-17T03:54:43.994Z,314.33
2022-10-17T04:26:54.841Z,261.17
2022-10-17T04:29:23.425Z,262.40
2022-10-17T04:31:52.479Z,252.40
2022-10-17T04:34:20.849Z,347.75
2022-10-17T04:36:49.363Z,313.30
2022-10-17T04:41:46.603Z,354.48
2022-10-17T04:44:21.035Z,354.55
2022-10-17T04:52:42.034Z,220.43
2022-10-17T04:55:11.258Z,244.68
2022-10-17T04:57:40.393Z,359.55
2022-10-17T05:00:16.484Z,380.42
2022-10-17T05:03:08.878Z,351.90
2022-10-17T05:08:59.083Z,256.67
2022-10-17T05:15:27.329Z,266.38
2022-10-17T05:27:53.644Z,241.60
2022-10-17T05:41:00.049Z,267.95
2022-10-17T05:52:08.892Z,256.85
2022-10-17T05:54:37.440Z,244.98
2022-10-17T05:57:06.096Z,266.77
2022-10-17T05:59:34.733Z,251.45
2022-10-17T06:02:04.840Z,257.48
2022-10-17T06:17:58.999Z,314.15
2022-10-17T06:20:30.537Z,285.05
2022-10-17T06:23:01.276Z,259.73
2022-10-17T06:25:39.682Z,247.35
2022-10-17T06:28:08.260Z,241.15
2022-10-17T06:30:36.710Z,257.75
2022-10-17T06:33:06.641Z,253.40
2022-10-17T06:35:35.158Z,254.73
2022-10-17T06:38:04.815Z,264.70
2022-10-17T06:40:33.428Z,369.67
2022-10-17T06:43:04.090Z,278.23
2022-10-17T06:45:32.641Z,255.05
2022-10-17T06:48:01.224Z,264.83
2022-10-17T06:50:31.528Z,263.38
2022-10-17T06:53:00.074Z,271.40
2022-10-17T06:55:31.997Z,264.60
2022-10-17T06:58:02.240Z,264.90
2022-10-17T07:00:33.989Z,257.67
2022-10-17T07:03:05.147Z,283.52
2022-10-17T07:05:39.601Z,258.88
2022-10-17T07:10:40.033Z,253.38
2022-10-17T07:13:08.579Z,279.45
2022-10-17T07:15:40.179Z,262.73
2022-10-17T07:18:09.695Z,270.73
2022-10-17T07:20:40.359Z,290.20
2022-10-17T07:23:09.854Z,313.00
2022-10-17T07:25:40.208Z,302.20
2022-10-17T07:28:08.948Z,264.38
2022-10-17T07:30:37.623Z,263.30
2022-10-17T07:33:06.237Z,291.27
2022-10-17T07:35:34.932Z,259.38
2022-10-17T07:38:05.074Z,294.35
2022-10-17T07:40:33.594Z,294.23
2022-10-17T07:43:02.513Z,293.85
2022-10-17T07:45:31.093Z,282.67
2022-10-17T07:47:59.965Z,293.45
2022-10-17T07:50:29.284Z,236.30
2022-10-17T07:52:57.786Z,270.27
2022-10-17T07:55:27.960Z,253.57
2022-10-17T07:57:56.460Z,235.13
2022-10-17T08:00:25.020Z,238.48
2022-10-17T08:02:53.607Z,226.35
2022-10-17T08:05:24.140Z,232.70
2022-10-17T08:07:52.646Z,228.23
2022-10-17T08:10:21.441Z,258.55
2022-10-17T08:12:51.373Z,265.05
2022-10-17T08:15:26.752Z,254.43
2022-10-17T08:17:58.393Z,242.40
2022-10-17T08:20:27.157Z,268.13
2022-10-17T08:22:56.074Z,268.30
2022-10-17T08:25:26.779Z,274.63
2022-10-17T08:27:59.853Z,276.40
2022-10-17T08:30:30.855Z,309.50
2022-10-17T08:32:59.337Z,273.08
2022-10-17T08:35:28.371Z,279.55
2022-10-17T08:37:57.016Z,279.75
2022-10-17T08:40:27.625Z,271.10
2022-10-17T08:43:11.801Z,261.65
2022-10-17T08:45:45.925Z,259.05
2022-10-17T08:48:17.723Z,322.10
2022-10-17T08:50:50.027Z,267.27
2022-10-17T08:53:22.702Z,268.05
2022-10-17T08:55:52.681Z,296.25
2022-10-17T08:58:24.344Z,309.27
2022-10-17T09:01:03.793Z,319.23
2022-10-17T09:03:46.742Z,328.35
2022-10-17T09:06:20.982Z,337.35
2022-10-17T09:11:32.817Z,332.08
2022-10-17T09:14:10.560Z,333.65
2022-10-17T09:16:52.109Z,351.15
2022-10-17T09:19:24.354Z,330.00
2022-10-17T09:21:57.698Z,305.33
2022-10-17T09:24:36.079Z,323.37
2022-10-17T09:27:05.275Z,362.08
2022-10-17T09:29:38.987Z,428.83
2022-10-17T09:32:16.363Z,395.67
2022-10-17T09:34:45.077Z,278.58
2022-10-17T09:37:16.351Z,286.65
2022-10-17T09:39:45.705Z,361.88
2022-10-17T09:42:18.692Z,308.60
2022-10-17T09:44:52.549Z,285.95
2022-10-17T09:47:30.095Z,292.20
2022-10-17T09:49:58.788Z,312.58
2022-10-17T09:52:32.141Z,295.27
2022-10-17T09:55:03.274Z,296.95
2022-10-17T09:57:52.745Z,288.10
2022-10-17T10:00:25.965Z,289.52
2022-10-17T10:03:11.214Z,278.77
2022-10-17T10:05:39.926Z,337.55
2022-10-17T10:08:18.684Z,346.25
2022-10-17T10:10:47.426Z,345.50
2022-10-17T10:13:21.193Z,349.10
2022-10-17T10:15:52.116Z,307.77
2022-10-17T10:18:35.963Z,345.55
2022-10-17T10:21:10.179Z,300.58
2022-10-17T10:26:21.045Z,322.80
2022-10-17T10:28:56.239Z,330.85
2022-10-17T10:31:32.014Z,353.45
2022-10-17T10:34:02.802Z,352.30
2022-10-17T10:36:59.830Z,356.83
2022-10-17T10:39:46.793Z,363.50
2022-10-17T10:42:28.482Z,361.88
2022-10-17T10:45:01.064Z,358.63
2022-10-17T11:53:48.084Z,303.45
2022-10-17T11:56:25.737Z,342.05
2022-10-17T11:58:59.871Z,313.48
2022-10-17T12:04:34.465Z,434.90
2022-10-17T12:24:36.825Z,302.08
2022-10-17T12:27:25.194Z,304.95
2022-10-17T12:30:02.116Z,280.40
2022-10-17T12:35:08.925Z,306.58
2022-10-17T12:38:32.465Z,307.95
2022-10-17T12:41:07.228Z,314.75
2022-10-17T12:46:45.752Z,299.73
2022-10-17T12:49:40.120Z,317.25
2022-10-17T12:52:25.031Z,295.77
2022-10-17T12:55:11.699Z,290.55
2022-10-17T12:57:58.619Z,339.38
2022-10-17T13:00:33.193Z,305.58
2022-10-17T13:03:07.056Z,326.67
2022-10-17T13:05:40.154Z,297.30
2022-10-17T13:08:14.671Z,306.92
2022-10-17T13:10:43.794Z,281.40
2022-10-17T13:13:18.536Z,305.55
2022-10-17T13:15:50.400Z,324.50
2022-10-17T13:18:23.949Z,314.50
2022-10-17T13:21:00.647Z,324.85
2022-10-17T13:23:34.558Z,319.58
2022-10-17T13:26:09.465Z,357.90
2022-10-17T13:28:39.899Z,362.75
2022-10-17T13:31:09.806Z,304.48
2022-10-17T13:33:40.438Z,295.80
2022-10-17T13:36:16.387Z,320.08
2022-10-17T13:38:45.496Z,323.05
2022-10-17T13:44:08.991Z,308.20
2022-10-17T13:46:39.288Z,319.50
2022-10-17T13:49:18.545Z,369.98
2022-10-17T13:51:48.782Z,382.90
2022-10-17T13:54:29.708Z,365.27
2022-10-17T13:56:58.739Z,377.80
2022-10-17T13:59:31.682Z,370.13
2022-10-17T14:02:01.737Z,360.65
2022-10-17T14:04:39.288Z,362.95
2022-10-17T14:07:23.706Z,358.95
2022-10-17T14:09:52.540Z,384.38
2022-10-17T14:12:21.709Z,341.60
2022-10-17T14:15:11.161Z,336.17
2022-10-17T14:17:40.644Z,323.73
2022-10-17T14:23:37.478Z,337.73
2022-10-17T14:26:08.395Z,312.92
2022-10-17T14:28:37.309Z,315.00
2022-10-17T14:31:27.039Z,338.88
2022-10-17T14:33:56.331Z,315.70
2022-10-17T14:36:48.229Z,298.05
2022-10-17T14:39:31.871Z,320.40
2022-10-17T14:42:04.446Z,327.10
2022-10-17T14:44:34.932Z,330.85
2022-10-17T14:47:30.721Z,340.90
2022-10-17T14:50:06.543Z,344.05
2022-10-17T14:52:35.920Z,332.70
2022-10-17T14:55:22.800Z,311.77
2022-10-17T14:57:51.609Z,311.92
2022-10-17T15:00:21.374Z,383.85
2022-10-17T15:18:56.167Z,330.45
2022-10-17T15:21:37.592Z,334.17
2022-10-17T15:24:08.843Z,314.92
2022-10-17T15:26:37.326Z,320.02
2022-10-17T15:31:36.232Z,329.08
2022-10-17T15:34:06.032Z,318.58
2022-10-17T15:36:40.892Z,324.02
2022-10-17T15:39:10.763Z,327.27
2022-10-17T15:41:39.382Z,332.45
2022-10-17T15:44:07.933Z,327.17
2022-10-17T15:46:37.419Z,367.55
2022-10-17T15:49:25.956Z,292.77
2022-10-17T15:54:30.113Z,308.83
2022-10-17T15:56:58.702Z,311.20
2022-10-17T15:59:31.662Z,309.83
2022-10-17T16:02:01.069Z,299.23
2022-10-17T16:04:31.480Z,295.20
2022-10-17T16:07:00.066Z,298.55
2022-10-17T16:09:29.911Z,301.38
2022-10-17T16:11:58.483Z,307.33
2022-10-17T16:14:27.043Z,315.10
2022-10-17T16:17:04.547Z,301.13
2022-10-17T16:19:34.669Z,304.02
2022-10-17T16:22:19.226Z,300.38
2022-10-17T16:27:23.371Z,278.75
2022-10-17T16:29:54.889Z,280.10
2022-10-17T16:32:23.339Z,270.02
2022-10-17T16:34:53.279Z,268.75
2022-10-17T16:37:21.794Z,263.00
2022-10-17T16:39:52.443Z,264.23
2022-10-17T16:42:21.384Z,231.18
2022-10-17T16:44:50.663Z,266.65
2022-10-17T16:47:19.671Z,259.83
2022-10-17T16:49:49.840Z,202.73
2022-10-17T16:52:20.385Z,234.73
2022-10-17T16:54:53.789Z,244.15
2022-10-17T16:57:22.624Z,229.77
2022-10-17T16:59:51.228Z,222.82
2022-10-17T17:02:21.483Z,208.40
2022-10-17T17:04:50.382Z,223.70
2022-10-17T17:07:22.411Z,242.85
2022-10-17T17:09:51.293Z,212.73
2022-10-17T17:12:20.028Z,257.65
2022-10-17T17:14:49.050Z,282.55
2022-10-17T17:17:30.417Z,285.15
2022-10-17T17:20:06.729Z,260.52
2022-10-17T17:22:36.734Z,226.77
2022-10-17T17:25:05.948Z,233.45
2022-10-17T17:27:34.503Z,307.25
2022-10-17T17:30:02.962Z,336.58
2022-10-17T17:32:31.764Z,280.10
2022-10-17T17:35:00.245Z,327.70
2022-10-17T17:37:29.108Z,332.67
2022-10-17T17:39:59.392Z,335.65
2022-10-17T17:42:27.929Z,332.60
2022-10-17T17:44:56.335Z,374.83
2022-10-17T17:47:24.846Z,380.58
2022-10-17T17:49:53.423Z,408.80
2022-10-17T17:52:22.012Z,324.42
2022-10-17T17:54:50.878Z,342.85
2022-10-17T17:57:22.167Z,350.92
2022-10-17T17:59:52.436Z,338.63
2022-10-17T18:02:21.783Z,311.35
2022-10-17T18:04:51.666Z,341.15
2022-10-17T18:07:30.619Z,332.00
2022-10-17T18:10:21.690Z,309.90
2022-10-17T18:13:00.853Z,317.80
2022-10-17T18:15:53.465Z,322.80
2022-10-17T18:18:46.238Z,306.73
2022-10-17T18:21:51.819Z,322.40
2022-10-17T18:25:03.861Z,336.20
2022-10-17T18:32:04.538Z,321.83
2022-10-17T18:35:35.408Z,311.98
2022-10-17T18:42:12.978Z,333.35
2022-10-17T18:48:22.537Z,289.25
2022-10-17T18:51:11.027Z,311.15
2022-10-17T18:54:17.371Z,310.55
2022-10-17T18:57:28.518Z,342.98
2022-10-17T19:00:30.753Z,324.73
2022-10-17T19:03:15.562Z,310.85
2022-10-17T19:11:26.934Z,335.75
2022-10-17T19:14:20.648Z,352.10
2022-10-17T19:17:43.784Z,338.75
2022-10-17T19:20:34.008Z,338.50
2022-10-17T19:23:48.858Z,335.92
2022-10-17T19:26:37.024Z,320.23
2022-10-17T19:37:56.910Z,287.02
2022-10-17T19:40:47.211Z,280.42
2022-10-17T19:46:50.745Z,295.08
2022-10-17T19:49:50.297Z,368.00
2022-10-17T19:52:19.767Z,371.95
2022-10-17T19:54:48.758Z,380.33
2022-10-17T19:57:19.276Z,338.23
2022-10-17T19:59:53.637Z,430.05
2022-10-17T20:02:25.166Z,385.50
2022-10-17T20:05:17.190Z,384.60
2022-10-17T20:07:45.769Z,367.17
2022-10-17T20:10:15.171Z,381.48
2022-10-17T20:12:44.387Z,376.63
2022-10-17T20:15:16.811Z,392.15
2022-10-17T20:17:45.813Z,356.52
2022-10-17T20:20:47.371Z,405.55
2022-10-17T20:23:39.117Z,387.55
2022-10-17T20:27:13.218Z,394.13
2022-10-17T20:29:41.954Z,376.08
2022-10-17T20:32:44.819Z,360.05
2022-10-17T20:38:13.063Z,302.88
2022-10-17T20:40:49.399Z,414.33
2022-10-17T20:43:40.564Z,422.38
2022-10-17T20:46:48.633Z,411.15
2022-10-17T20:49:28.366Z,382.63
2022-10-17T20:52:11.129Z,419.55
2022-10-17T20:54:52.077Z,401.45
2022-10-17T20:57:51.099Z,417.38
2022-10-17T21:00:31.031Z,390.08
2022-10-17T21:03:05.841Z,410.20
2022-10-17T21:05:41.629Z,368.10
2022-10-17T21:08:21.610Z,427.58
2022-10-17T21:10:53.573Z,390.90
2022-10-17T21:13:25.157Z,375.30
2022-10-17T21:15:56.775Z,435.33
2022-10-17T21:18:25.251Z,426.60
2022-10-17T21:20:55.319Z,433.45
2022-10-17T21:23:25.207Z,427.10
2022-10-17T21:25:53.800Z,359.85
2022-10-17T21:28:22.521Z,373.95
2022-10-17T21:30:51.261Z,389.88
2022-10-17T21:33:19.812Z,399.80
2022-10-17T21:35:48.438Z,363.58
2022-10-17T21:38:18.198Z,404.90
2022-10-17T21:40:50.374Z,352.02
2022-10-17T21:46:02.064Z,265.17
2022-10-17T21:48:30.845Z,354.02
2022-10-17T21:51:00.773Z,380.00
2022-10-17T21:53:31.446Z,394.90
2022-10-17T21:56:01.598Z,403.15
2022-10-17T21:58:31.065Z,388.60
2022-10-17T22:01:07.110Z,385.30
2022-10-17T22:03:36.248Z,372.98
2022-10-17T22:06:13.062Z,383.83
2022-10-17T22:08:55.388Z,370.65
2022-10-17T22:11:25.493Z,336.55
2022-10-17T22:13:55.909Z,394.67
2022-10-17T22:16:24.811Z,396.20
2022-10-17T22:18:53.494Z,389.60
2022-10-17T22:21:23.507Z,394.77
2022-10-17T22:23:59.489Z,386.77
2022-10-17T22:26:29.297Z,341.98
2022-10-17T22:28:58.099Z,387.25
2022-10-17T22:31:26.651Z,396.20
2022-10-17T22:33:55.355Z,393.13
2022-10-17T22:36:23.877Z,403.90
2022-10-17T22:38:52.391Z,399.30
2022-10-17T22:41:22.493Z,392.35
2022-10-17T22:43:51.383Z,399.63
2022-10-17T22:46:20.074Z,362.02
2022-10-17T22:48:48.578Z,332.20
2022-10-17T22:51:17.295Z,406.75
2022-10-17T22:53:46.082Z,346.67
2022-10-17T22:56:16.972Z,385.63
2022-10-17T22:58:47.265Z,400.92
2022-10-17T23:01:17.677Z,404.30
2022-10-17T23:03:46.642Z,381.52
2022-10-17T23:06:15.399Z,341.55
2022-10-17T23:08:44.085Z,401.35
2022-10-17T23:11:12.566Z,390.90
2022-10-17T23:13:41.447Z,377.23
2022-10-17T23:16:11.585Z,379.08
2022-10-17T23:18:40.381Z,393.80
2022-10-17T23:21:09.232Z,382.60
2022-10-17T23:23:37.741Z,362.85
2022-10-17T23:26:07.570Z,363.33
2022-10-17T23:28:36.203Z,387.35
2022-10-17T23:31:17.030Z,357.35
2022-10-17T23:33:46.935Z,340.27
2022-10-17T23:36:16.984Z,344.15
2022-10-17T23:38:46.633Z,285.65
2022-10-17T23:41:15.497Z,276.38
2022-10-17T23:43:46.247Z,280.27
2022-10-17T23:46:16.283Z,279.73
2022-10-17T23:48:44.867Z,343.33
2022-10-17T23:51:13.597Z,273.65
2022-10-17T23:53:42.482Z,272.85
2022-10-17T23:56:11.540Z,265.15
2022-10-17T23:58:40.705Z,334.25
